Arkadelphia, Arkansas
Current Conditions -  °F | °C
As of 4:56 PM on Saturday 20 Dec 2014 (Local Time) from KADF Reporting Station
Broken Clouds Broken Clouds  
Wind Chill:   Ceiling: 4700
Heat Index:   Visibility: 10mi
Dew Point:   Wind: 0mph
Humidity: 83%   Direction: NA
Pressure: 30.22"   Gusts: NA
Location:  34.12°N, 93.05°W
Report Text: KADF 202256Z AUTO 00000KT 10SM BKN047 09/07 A3022 RMK AO2 T00940066 SLP250
Loading
Personal Weather Stations






























Interactive Weather Map New forecast layout! Learn more

10-Day Weather Forecast

Advertisements
Track Severe Weather on mobile